Time;durP1;ratioP1;P1;durP2;ratioP2;P2;SDS_P1;SDS_P2;PMS_P1;PMS_P2;Temp;Humidity;BMP_temperature;BMP_pressure;BME280_temperature;BME280_humidity;BME280_pressure;Samples;Min_cycle;Max_cycle;Signal;HPM_P1;HPM_P2
2022/08/09 00:02:05;;;;;;;11.15;5.80;;;;;;;23.92;47.87;99368.88;5111463;28;20401;-73
2022/08/09 00:04:31;;;;;;;7.00;6.03;;;;;;;24.03;48.12;99365.88;5108733;28;20035;-73
2022/08/09 00:06:57;;;;;;;12.30;5.57;;;;;;;23.93;48.05;99364.78;5108916;28;20023;-73
2022/08/09 00:09:23;;;;;;;11.32;5.68;;;;;;;24.17;47.60;99359.16;5111612;28;20084;-73
2022/08/09 00:11:49;;;;;;;6.57;5.70;;;;;;;24.37;47.29;99359.25;5114268;28;20036;-73
2022/08/09 00:14:16;;;;;;;7.80;5.28;;;;;;;24.71;46.90;99356.66;5113947;28;20099;-73
2022/08/09 00:16:44;;;;;;;10.02;5.28;;;;;;;24.85;46.52;99347.03;5114575;28;20539;-74
2022/08/09 00:19:10;;;;;;;7.28;5.15;;;;;;;24.94;46.54;99355.84;5148502;27;20023;-74
2022/08/09 00:21:37;;;;;;;7.32;5.45;;;;;;;24.98;46.45;99348.03;5113644;28;20037;-73
2022/08/09 00:24:03;;;;;;;8.85;5.70;;;;;;;24.92;46.44;99352.63;5113666;28;20023;-73
2022/08/09 00:26:30;;;;;;;8.65;5.50;;;;;;;24.61;47.45;99341.28;5111818;28;20027;-73
2022/08/09 00:28:56;;;;;;;10.18;5.35;;;;;;;24.52;48.20;99353.28;5111240;28;20154;-73
2022/08/09 00:31:23;;;;;;;12.77;5.43;;;;;;;24.57;47.63;99358.53;5113250;28;20032;-73
2022/08/09 00:33:49;;;;;;;8.75;6.30;;;;;;;24.64;47.49;99361.25;5115044;28;20023;-73
2022/08/09 00:36:15;;;;;;;10.50;5.10;;;;;;;24.42;48.01;99366.53;5114650;28;20057;-73
2022/08/09 00:38:40;;;;;;;8.82;5.93;;;;;;;24.45;48.01;99357.06;5114866;28;20027;-73
2022/08/09 00:41:09;;;;;;;8.73;6.18;;;;;;;24.24;48.38;99353.31;5113790;28;20230;-74
2022/08/09 00:43:36;;;;;;;10.38;6.07;;;;;;;24.15;48.63;99364.50;5113944;27;20028;-73
2022/08/09 00:46:04;;;;;;;15.35;6.25;;;;;;;24.21;48.20;99362.75;5147625;27;20027;-73
2022/08/09 00:48:30;;;;;;;13.25;7.13;;;;;;;23.54;48.92;99346.94;5114008;28;20470;-74
2022/08/09 00:50:55;;;;;;;9.98;6.60;;;;;;;23.20;49.53;99361.97;5112921;28;20497;-73
2022/08/09 00:53:21;;;;;;;19.20;6.90;;;;;;;23.03;50.28;99366.63;5111358;28;20028;-73
2022/08/09 00:55:47;;;;;;;10.80;7.60;;;;;;;22.84;50.77;99363.16;5114672;28;20116;-73
2022/08/09 00:58:12;;;;;;;20.00;7.53;;;;;;;22.74;51.28;99364.06;5113676;28;20035;-73
2022/08/09 01:00:39;;;;;;;18.95;7.75;;;;;;;22.51;51.48;99365.47;5113961;28;20169;-73
2022/08/09 01:03:11;;;;;;;16.83;7.32;;;;;;;22.61;51.52;99366.63;5114294;28;20031;-73
2022/08/09 01:05:46;;;;;;;15.43;7.13;;;;;;;22.45;51.88;99361.44;5093915;28;20490;-73
2022/08/09 01:08:28;;;;;;;13.32;7.95;;;;;;;22.41;52.03;99360.66;5093872;28;20037;-73
2022/08/09 01:11:16;;;;;;;9.73;6.97;;;;;;;22.40;52.18;99373.28;5097792;28;20064;-73
2022/08/09 01:13:51;;;;;;;9.15;7.78;;;;;;;22.31;52.67;99376.59;5113068;28;20019;-73
2022/08/09 01:16:22;;;;;;;11.82;7.95;;;;;;;22.18;52.92;99373.44;5114439;28;20047;-73
2022/08/09 01:18:50;;;;;;;13.52;8.23;;;;;;;21.96;53.67;99370.75;5113845;28;20028;-74
2022/08/09 01:21:19;;;;;;;11.05;7.95;;;;;;;22.08;53.67;99369.44;5113760;28;20448;-73
2022/08/09 01:24:01;;;;;;;9.23;8.30;;;;;;;22.00;53.91;99371.50;5114010;28;20016;-73
2022/08/09 01:26:48;;;;;;;10.73;8.57;;;;;;;22.07;53.92;99367.00;5113969;28;20026;-73
2022/08/09 01:29:18;;;;;;;13.98;8.85;;;;;;;22.06;53.86;99360.50;5113088;28;20016;-73
2022/08/09 01:31:45;;;;;;;9.50;8.43;;;;;;;22.04;54.09;99364.97;5112185;28;20020;-73
2022/08/09 01:34:17;;;;;;;11.40;8.52;;;;;;;21.99;54.43;99366.22;5112595;28;20035;-73
2022/08/09 01:36:45;;;;;;;9.00;7.90;;;;;;;21.90;54.34;99363.84;5113591;28;20019;-73
2022/08/09 01:39:12;;;;;;;12.50;8.77;;;;;;;21.92;54.48;99360.59;5111560;28;20139;-73
2022/08/09 01:41:40;;;;;;;15.20;7.90;;;;;;;21.95;54.34;99365.44;5113482;28;20081;-73
2022/08/09 01:44:08;;;;;;;10.40;7.85;;;;;;;22.00;54.16;99368.66;5111297;28;20151;-73
2022/08/09 01:46:33;;;;;;;9.07;8.13;;;;;;;22.12;54.02;99373.06;5113636;28;20027;-73
2022/08/09 01:49:09;;;;;;;9.75;8.50;;;;;;;22.16;53.80;99358.78;5112003;28;20217;-73
2022/08/09 01:51:36;;;;;;;10.35;8.23;;;;;;;22.32;53.45;99363.97;5111999;28;20066;-74
2022/08/09 01:54:04;;;;;;;10.75;7.82;;;;;;;22.43;53.06;99359.00;5111305;28;20030;-73
2022/08/09 01:56:32;;;;;;;9.48;7.72;;;;;;;22.60;52.53;99358.50;5112533;28;20391;-73
2022/08/09 01:59:02;;;;;;;12.18;7.93;;;;;;;22.63;52.37;99351.97;5112436;28;20034;-73
2022/08/09 02:01:32;;;;;;;10.48;7.65;;;;;;;22.75;52.12;99350.66;5112109;27;20056;-73
2022/08/09 02:03:59;;;;;;;9.95;8.70;;;;;;;22.72;52.01;99338.03;5111343;28;20042;-73
2022/08/09 02:09:12;;;;;;;10.50;7.93;;;;;;;23.02;51.83;99349.97;5111877;28;20126;-73
2022/08/09 02:11:38;;;;;;;16.83;9.77;;;;;;;23.04;51.58;99341.78;5112831;28;20118;-73
2022/08/09 02:14:06;;;;;;;15.75;8.88;;;;;;;22.99;51.96;99348.75;5110888;28;20019;-73
2022/08/09 02:16:35;;;;;;;15.40;8.65;;;;;;;22.98;52.16;99347.94;5112132;28;20024;-74
2022/08/09 02:19:02;;;;;;;11.60;9.47;;;;;;;22.88;52.15;99348.88;5112033;28;20028;-73
2022/08/09 02:21:32;;;;;;;27.75;8.98;;;;;;;23.00;51.75;99359.75;5111199;28;20154;-73
2022/08/09 02:24:00;;;;;;;11.52;7.28;;;;;;;23.04;51.54;99351.13;5111211;28;20472;-73
2022/08/09 02:26:29;;;;;;;16.30;7.85;;;;;;;23.00;51.79;99353.22;5112533;28;20077;-73
2022/08/09 02:29:17;;;;;;;16.15;8.32;;;;;;;22.95;51.78;99359.41;5111543;28;20019;-73
2022/08/09 02:31:45;;;;;;;9.25;7.65;;;;;;;22.99;51.41;99357.31;5104824;27;20020;-73
2022/08/09 02:34:15;;;;;;;10.43;7.05;;;;;;;23.03;51.11;99363.78;5099402;28;20417;-73
2022/08/09 02:36:43;;;;;;;12.48;7.57;;;;;;;22.77;51.59;99363.22;5111523;28;20379;-73
2022/08/09 02:39:15;;;;;;;9.20;7.15;;;;;;;22.70;51.79;99363.31;5111864;28;20096;-73
2022/08/09 02:41:47;;;;;;;14.48;7.00;;;;;;;22.76;51.54;99364.47;5110579;28;20024;-73
2022/08/09 02:44:19;;;;;;;11.65;7.53;;;;;;;22.80;51.52;99368.06;5110367;28;20024;-73
2022/08/09 02:46:50;;;;;;;13.63;6.80;;;;;;;23.05;50.68;99360.50;5108098;28;20035;-73
2022/08/09 02:49:18;;;;;;;15.93;7.22;;;;;;;22.95;50.99;99363.03;5110596;28;20489;-74
2022/08/09 02:51:48;;;;;;;14.07;7.22;;;;;;;22.85;50.96;99361.94;5109662;28;20118;-73
2022/08/09 02:54:16;;;;;;;15.93;7.78;;;;;;;22.47;52.12;99361.84;5107355;28;20030;-75
2022/08/09 02:56:47;;;;;;;15.43;7.20;;;;;;;22.17;52.71;99360.41;5107921;28;20494;-73
2022/08/09 02:59:15;;;;;;;10.63;7.78;;;;;;;22.03;53.23;99364.19;5100838;28;20446;-75
2022/08/09 03:01:42;;;;;;;16.00;7.82;;;;;;;21.92;53.89;99366.28;5107938;28;20052;-78
2022/08/09 03:04:13;;;;;;;10.40;7.82;;;;;;;21.88;53.86;99364.25;5108444;28;20407;-76
2022/08/09 03:06:41;;;;;;;10.90;7.93;;;;;;;21.66;54.66;99366.41;5106777;28;20042;-77
2022/08/09 03:09:09;;;;;;;11.05;7.68;;;;;;;21.41;55.27;99367.28;5108995;28;20356;-78
2022/08/09 03:11:36;;;;;;;12.70;8.52;;;;;;;21.22;55.95;99364.91;5107798;28;20020;-76
2022/08/09 03:14:03;;;;;;;15.02;8.30;;;;;;;21.31;55.87;99356.75;5106641;28;20031;-71
2022/08/09 03:16:30;;;;;;;12.30;7.47;;;;;;;21.42;55.88;99363.22;5110270;28;20043;-71
2022/08/09 03:18:56;;;;;;;19.55;8.63;;;;;;;21.50;55.48;99351.81;5108843;28;20496;-72
2022/08/09 03:21:22;;;;;;;9.82;7.78;;;;;;;21.44;55.75;99357.13;5109324;28;20035;-74
2022/08/09 03:23:48;;;;;;;17.10;8.85;;;;;;;21.46;55.76;99357.53;5111403;28;20062;-73
2022/08/09 03:26:15;;;;;;;19.52;8.57;;;;;;;21.57;55.35;99361.13;5111662;28;20055;-74
2022/08/09 03:28:43;;;;;;;9.20;6.82;;;;;;;21.72;54.83;99358.25;5108231;28;20043;-74
2022/08/09 03:31:10;;;;;;;16.67;7.95;;;;;;;22.07;54.15;99355.59;5102159;28;20046;-74
2022/08/09 03:33:37;;;;;;;12.32;7.78;;;;;;;22.13;53.88;99348.25;5098713;28;20118;-73
2022/08/09 03:36:06;;;;;;;13.93;7.90;;;;;;;21.83;54.87;99347.63;5109759;28;20028;-74
2022/08/09 03:38:32;;;;;;;24.83;8.88;;;;;;;21.93;54.74;99359.38;5105684;28;20023;-73
2022/08/09 03:40:58;;;;;;;13.20;10.13;;;;;;;21.97;54.42;99357.28;5109018;28;20031;-73
2022/08/09 03:43:26;;;;;;;11.40;8.40;;;;;;;22.20;53.66;99355.94;5110876;28;20469;-76
2022/08/09 03:45:52;;;;;;;11.18;8.10;;;;;;;22.25;53.33;99356.28;5113621;28;20102;-75
2022/08/09 03:48:19;;;;;;;12.32;7.15;;;;;;;22.31;52.92;99356.66;5115109;28;20070;-76
2022/08/09 03:50:45;;;;;;;18.65;7.82;;;;;;;22.52;52.48;99364.25;5114594;28;20501;-77
2022/08/09 03:53:12;;;;;;;25.00;8.38;;;;;;;22.44;52.66;99357.78;5112287;28;20028;-75
2022/08/09 03:55:37;;;;;;;21.42;7.53;;;;;;;22.51;52.46;99351.25;5112663;28;20047;-75
2022/08/09 03:58:03;;;;;;;13.00;6.97;;;;;;;22.48;52.44;99354.94;5104209;28;20024;-75
2022/08/09 04:00:29;;;;;;;14.88;7.50;;;;;;;22.28;52.83;99355.44;5112012;28;20057;-75
2022/08/09 04:02:55;;;;;;;20.88;7.93;;;;;;;22.29;52.85;99357.06;5097721;28;20126;-75
2022/08/09 04:05:21;;;;;;;11.95;7.50;;;;;;;22.16;53.14;99368.16;5113230;28;20094;-75
2022/08/09 04:07:46;;;;;;;11.13;7.30;;;;;;;22.28;52.60;99366.84;5112105;28;20023;-75
2022/08/09 04:10:13;;;;;;;10.18;6.45;;;;;;;22.45;52.54;99358.59;5113863;28;20019;-75
2022/08/09 04:12:50;;;;;;;12.88;7.22;;;;;;;22.70;51.63;99369.00;5113127;28;20110;-75
2022/08/09 04:15:18;;;;;;;8.95;7.43;;;;;;;22.76;51.45;99372.22;5113733;28;20494;-75
2022/08/09 04:17:44;;;;;;;13.80;7.53;;;;;;;22.73;51.37;99368.16;5113504;27;20023;-75
2022/08/09 04:20:11;;;;;;;8.90;6.40;;;;;;;22.97;50.82;99366.28;5106171;28;20531;-73
2022/08/09 04:22:37;;;;;;;11.20;7.03;;;;;;;22.88;50.82;99370.88;5109187;28;20031;-74
2022/08/09 04:25:04;;;;;;;7.00;6.25;;;;;;;22.92;51.17;99372.44;5114520;28;20024;-74
2022/08/09 04:27:30;;;;;;;12.38;6.65;;;;;;;22.85;51.37;99378.22;5114538;28;20028;-74
2022/08/09 04:29:56;;;;;;;9.50;7.18;;;;;;;22.89;51.23;99378.19;5113133;28;20019;-74
2022/08/09 04:32:22;;;;;;;15.65;7.28;;;;;;;22.78;51.49;99369.75;5114459;28;20024;-74
2022/08/09 04:34:48;;;;;;;11.73;7.75;;;;;;;22.78;51.06;99373.38;5109448;28;20024;-74
2022/08/09 04:37:13;;;;;;;12.38;7.32;;;;;;;23.07;49.79;99363.75;5108749;28;20087;-74
2022/08/09 04:39:39;;;;;;;12.27;8.20;;;;;;;23.43;49.30;99369.06;5112064;28;20047;-74
2022/08/09 04:42:05;;;;;;;12.70;7.03;;;;;;;23.64;48.41;99365.13;5114345;28;20107;-74
2022/08/09 04:44:30;;;;;;;12.73;7.22;;;;;;;23.44;48.82;99376.41;5114392;27;20031;-74
2022/08/09 04:46:56;;;;;;;11.18;8.38;;;;;;;23.12;49.80;99369.78;5114378;28;20590;-74
2022/08/09 04:49:22;;;;;;;18.15;9.43;;;;;;;23.19;50.37;99368.91;5113394;28;20057;-74
2022/08/09 04:51:48;;;;;;;11.07;8.27;;;;;;;23.13;49.63;99354.31;5113566;27;20035;-74
2022/08/09 04:54:13;;;;;;;17.65;7.82;;;;;;;23.09;50.67;99358.44;5113968;28;20023;-74
2022/08/09 04:56:39;;;;;;;12.57;7.90;;;;;;;23.18;50.85;99355.09;5113194;28;20034;-74
2022/08/09 04:59:04;;;;;;;31.13;8.07;;;;;;;23.21;51.60;99354.22;5112793;28;20459;-73
2022/08/09 05:01:29;;;;;;;10.70;7.95;;;;;;;23.12;50.98;99358.38;5113686;28;20059;-74
2022/08/09 05:03:55;;;;;;;10.20;7.18;;;;;;;23.07;51.04;99347.47;5113015;28;20031;-74
2022/08/09 05:06:20;;;;;;;13.02;7.32;;;;;;;23.02;51.48;99350.75;5113760;28;20406;-73
2022/08/09 05:08:46;;;;;;;13.70;6.97;;;;;;;23.01;49.86;99346.28;5113801;28;20023;-74
2022/08/09 05:11:11;;;;;;;11.75;6.70;;;;;;;22.92;50.26;99335.38;5112412;28;20100;-73
2022/08/09 05:13:39;;;;;;;12.30;7.30;;;;;;;22.96;50.18;99352.47;5111262;28;20535;-74
2022/08/09 05:16:07;;;;;;;11.20;7.07;;;;;;;23.08;49.70;99346.22;5093197;28;20035;-74
2022/08/09 05:18:32;;;;;;;11.88;6.95;;;;;;;23.15;49.71;99353.88;5093958;28;20020;-73
2022/08/09 05:20:59;;;;;;;9.90;7.35;;;;;;;23.26;49.29;99348.06;5091762;28;20031;-73
2022/08/09 05:23:25;;;;;;;12.82;7.22;;;;;;;23.58;49.56;99352.59;5093057;28;20028;-74
2022/08/09 05:25:50;;;;;;;10.57;7.05;;;;;;;23.66;48.78;99351.28;5093002;28;20027;-73
2022/08/09 05:28:17;;;;;;;15.98;7.22;;;;;;;23.69;48.45;99355.28;5093677;28;20533;-73
2022/08/09 05:30:43;;;;;;;12.75;6.70;;;;;;;23.78;48.64;99349.09;5113403;28;20028;-74
2022/08/09 05:33:09;;;;;;;8.93;6.75;;;;;;;24.05;48.33;99356.88;5113445;28;20031;-74
2022/08/09 05:35:34;;;;;;;12.00;6.95;;;;;;;24.21;47.45;99353.38;5113215;28;20039;-75
2022/08/09 05:38:00;;;;;;;15.88;7.35;;;;;;;24.25;46.60;99354.94;5113221;28;20027;-75
2022/08/09 05:40:27;;;;;;;23.10;7.55;;;;;;;24.33;46.71;99347.06;5113221;28;20053;-74
2022/08/09 05:42:53;;;;;;;11.20;7.07;;;;;;;24.43;46.02;99362.41;5108535;28;20115;-77
2022/08/09 05:45:19;;;;;;;24.23;7.97;;;;;;;24.58;45.88;99365.03;5109696;28;20028;-74
2022/08/09 05:47:45;;;;;;;27.45;8.52;;;;;;;24.54;45.01;99353.66;5107927;28;20417;-73
2022/08/09 05:50:11;;;;;;;31.95;8.43;;;;;;;24.74;45.13;99352.91;5110327;28;20417;-77
2022/08/09 05:52:37;;;;;;;24.27;7.70;;;;;;;24.95;44.71;99360.31;5111601;28;20058;-73
2022/08/09 05:55:03;;;;;;;27.50;8.05;;;;;;;25.15;44.26;99362.44;5112276;28;20081;-75
2022/08/09 05:57:28;;;;;;;27.52;7.05;;;;;;;25.30;43.47;99352.31;5110771;28;20031;-75
2022/08/09 05:59:54;;;;;;;43.33;7.30;;;;;;;25.42;42.88;99345.13;5111952;28;20019;-74
2022/08/09 06:02:19;;;;;;;15.63;5.97;;;;;;;25.63;42.16;99343.88;5112667;28;20390;-76
2022/08/09 06:04:45;;;;;;;11.85;6.75;;;;;;;25.89;42.18;99347.00;5112350;28;20431;-73
2022/08/09 06:07:10;;;;;;;10.25;6.30;;;;;;;25.89;40.30;99352.72;5112742;28;20072;-74
2022/08/09 06:09:36;;;;;;;10.27;5.03;;;;;;;26.12;40.01;99358.75;5107280;28;20114;-75
2022/08/09 06:12:02;;;;;;;8.32;5.15;;;;;;;26.20;40.38;99358.19;5110628;28;20020;-73
2022/08/09 06:14:27;;;;;;;10.98;4.75;;;;;;;26.23;40.31;99349.97;5112097;28;20114;-75
2022/08/09 06:16:54;;;;;;;18.92;6.60;;;;;;;26.11;40.65;99357.97;5112119;28;20051;-74
2022/08/09 06:19:19;;;;;;;10.38;5.82;;;;;;;26.33;40.50;99361.16;5103894;28;20020;-74
2022/08/09 06:21:45;;;;;;;12.95;5.72;;;;;;;26.44;39.93;99360.91;5106728;28;20080;-74
2022/08/09 06:24:11;;;;;;;17.70;6.07;;;;;;;26.68;39.55;99362.78;5103875;28;20024;-75
2022/08/09 06:26:40;;;;;;;10.77;5.22;;;;;;;26.82;39.43;99364.47;5108128;28;20027;-75
2022/08/09 06:29:07;;;;;;;7.25;5.55;;;;;;;27.00;38.64;99358.28;5108017;28;20114;-74
2022/08/09 06:31:35;;;;;;;7.13;4.90;;;;;;;27.13;38.09;99352.59;5103682;28;20058;-74
2022/08/09 06:34:01;;;;;;;16.35;6.63;;;;;;;27.16;35.47;99358.25;5110248;28;20034;-73
2022/08/09 06:36:27;;;;;;;8.20;4.65;;;;;;;27.16;36.63;99354.59;5105799;28;20020;-75
2022/08/09 06:38:52;;;;;;;9.57;5.57;;;;;;;27.23;35.53;99350.69;5109089;28;20092;-73
2022/08/09 06:41:18;;;;;;;14.65;7.90;;;;;;;27.27;35.35;99339.91;5109304;28;20032;-74
2022/08/09 06:43:43;;;;;;;13.32;7.00;;;;;;;27.45;35.58;99337.34;5102137;28;20020;-73
2022/08/09 06:46:09;;;;;;;13.30;7.30;;;;;;;27.54;35.37;99333.00;5111108;28;20065;-74
2022/08/09 06:48:35;;;;;;;14.43;8.32;;;;;;;27.66;35.24;99326.50;5111130;28;20466;-78
2022/08/09 06:51:00;;;;;;;27.70;11.35;;;;;;;27.75;34.70;99331.56;5111986;28;20030;-76
2022/08/09 06:53:26;;;;;;;14.73;6.88;;;;;;;28.07;36.52;99335.50;5110656;28;20028;-73
2022/08/09 06:55:52;;;;;;;12.90;8.25;;;;;;;28.16;35.26;99332.75;5109982;28;20110;-74
2022/08/09 06:58:17;;;;;;;16.27;9.73;;;;;;;28.25;34.31;99334.16;5108659;28;20028;-74
2022/08/09 07:00:43;;;;;;;20.55;9.80;;;;;;;28.43;35.10;99327.81;5111079;28;20410;-75
2022/08/09 07:03:08;;;;;;;16.00;8.52;;;;;;;28.51;34.71;99325.50;5109401;28;20027;-76
2022/08/09 07:05:34;;;;;;;14.40;8.68;;;;;;;28.58;34.95;99322.34;5110475;28;20027;-73
2022/08/09 07:07:59;;;;;;;12.57;9.10;;;;;;;28.73;34.56;99329.25;5105868;28;20028;-74
2022/08/09 07:10:25;;;;;;;12.88;9.63;;;;;;;28.45;33.55;99323.19;5094263;28;20059;-72
2022/08/09 07:12:50;;;;;;;12.85;9.80;;;;;;;28.49;33.39;99328.03;5099439;28;20024;-75
2022/08/09 07:15:16;;;;;;;11.38;8.90;;;;;;;28.77;32.16;99329.09;5110044;28;20067;-75
2022/08/09 07:17:41;;;;;;;14.40;8.43;;;;;;;28.83;32.89;99323.59;5107141;28;20047;-73
2022/08/09 07:20:07;;;;;;;14.63;9.30;;;;;;;29.07;32.92;99321.09;5109036;28;20481;-73
2022/08/09 07:22:33;;;;;;;14.70;8.48;;;;;;;29.18;30.74;99314.94;5113313;28;20032;-73
2022/08/09 07:25:03;;;;;;;13.30;8.75;;;;;;;29.31;30.93;99316.94;5108289;28;20045;-75
2022/08/09 07:27:28;;;;;;;;;;;;;;;29.50;30.89;99315.84;5111399;28;20047;-74
2022/08/09 07:29:54;;;;;;;13.00;7.47;;;;;;;29.58;31.25;99324.22;5106006;27;19911;-73
2022/08/09 07:32:20;;;;;;;16.35;8.43;;;;;;;29.74;30.62;99317.41;5105625;28;20035;-74
2022/08/09 07:34:46;;;;;;;16.55;8.30;;;;;;;29.81;30.18;99320.81;5098671;28;20028;-74
2022/08/09 07:37:12;;;;;;;29.45;9.23;;;;;;;30.03;30.36;99324.91;5111891;28;20421;-74
2022/08/09 07:39:38;;;;;;;14.82;8.50;;;;;;;30.11;30.57;99314.75;5113793;28;20084;-74
2022/08/09 07:42:04;;;;;;;10.38;7.85;;;;;;;30.22;30.49;99320.84;5115672;28;20023;-79
2022/08/09 07:44:29;;;;;;;13.88;7.57;;;;;;;30.18;30.05;99322.28;5113671;28;20053;-76
2022/08/09 07:46:55;;;;;;;15.10;8.18;;;;;;;30.25;30.46;99319.91;5108885;28;20410;-77
2022/08/09 07:49:21;;;;;;;15.68;7.60;;;;;;;30.38;30.13;99325.53;5114462;28;20022;-76
2022/08/09 07:51:46;;;;;;;16.90;6.97;;;;;;;30.37;29.38;99332.59;5116026;28;20020;-79
2022/08/09 07:54:12;;;;;;;12.10;7.30;;;;;;;30.53;28.78;99324.97;5113455;28;20031;-78
2022/08/09 07:56:38;;;;;;;16.38;6.78;;;;;;;30.52;28.33;99318.38;5114627;28;20037;-77
2022/08/09 07:59:04;;;;;;;12.32;6.85;;;;;;;30.54;28.79;99312.94;5108721;28;20046;-76
2022/08/09 08:01:29;;;;;;;10.75;6.03;;;;;;;30.59;28.03;99322.22;5113649;28;20166;-76
2022/08/09 08:03:55;;;;;;;11.52;6.53;;;;;;;30.76;28.02;99320.69;5113998;28;20023;-76
2022/08/09 08:06:20;;;;;;;11.65;6.43;;;;;;;30.86;26.63;99315.72;5108978;28;20513;-75
2022/08/09 08:08:46;;;;;;;15.52;7.15;;;;;;;30.96;27.50;99310.78;5110964;28;20020;-78
2022/08/09 08:11:12;;;;;;;14.43;7.45;;;;;;;30.99;27.46;99323.41;5103552;28;20378;-75
2022/08/09 08:13:38;;;;;;;11.57;6.38;;;;;;;31.11;27.21;99316.69;5112726;28;20142;-75
2022/08/09 08:16:03;;;;;;;8.63;6.05;;;;;;;31.24;26.54;99314.47;5112534;28;20482;-76
2022/08/09 08:18:29;;;;;;;8.70;5.63;;;;;;;31.26;26.19;99311.09;5110305;28;20085;-74
2022/08/09 08:20:54;;;;;;;8.73;5.43;;;;;;;31.30;25.78;99299.38;5110321;28;20023;-75
2022/08/09 08:23:20;;;;;;;10.32;5.15;;;;;;;31.51;26.41;99304.16;5107274;28;20027;-77
2022/08/09 08:25:47;;;;;;;12.02;5.40;;;;;;;31.78;24.93;99299.59;5113262;28;20032;-77
2022/08/09 08:28:14;;;;;;;13.10;5.50;;;;;;;31.90;24.04;99302.78;5108889;28;20115;-77
2022/08/09 08:30:39;;;;;;;9.90;4.68;;;;;;;32.10;24.48;99296.44;5105938;28;20038;-80
2022/08/09 08:33:05;;;;;;;14.13;6.30;;;;;;;32.11;24.54;99289.34;5108389;28;20028;-77
2022/08/09 08:35:31;;;;;;;8.43;4.93;;;;;;;32.02;23.27;99293.09;5109168;27;20027;-77
2022/08/09 08:37:56;;;;;;;8.52;4.10;;;;;;;32.07;23.69;99298.22;5110049;28;20051;-77
2022/08/09 08:40:23;;;;;;;5.53;4.95;;;;;;;32.27;23.14;99298.91;5108949;28;20020;-76
2022/08/09 08:42:49;;;;;;;12.40;3.88;;;;;;;32.17;23.30;99292.38;5111040;28;20076;-77
2022/08/09 08:45:22;;;;;;;7.45;4.00;;;;;;;32.17;24.12;99301.06;5110414;28;20092;-78
2022/08/09 08:47:48;;;;;;;11.48;4.28;;;;;;;32.39;23.32;99291.34;5104520;28;20023;-78
2022/08/09 08:50:15;;;;;;;9.80;4.30;;;;;;;32.45;23.67;99298.84;5108712;28;20529;-78
2022/08/09 08:52:43;;;;;;;14.82;5.28;;;;;;;32.45;23.72;99281.47;5093742;28;20024;-81
2022/08/09 08:55:09;;;;;;;9.23;3.97;;;;;;;32.28;23.21;99283.97;5107964;28;20015;-73
2022/08/09 08:57:35;;;;;;;10.52;4.30;;;;;;;32.11;23.21;99279.91;5111081;28;20063;-72
2022/08/09 09:00:00;;;;;;;10.20;5.13;;;;;;;32.39;23.33;99282.66;5110610;28;20151;-75
2022/08/09 09:02:28;;;;;;;11.88;4.47;;;;;;;32.44;22.21;99273.28;5108949;28;20031;-74
2022/08/09 09:04:56;;;;;;;10.20;3.97;;;;;;;32.52;22.14;99286.09;5111739;27;20039;-75
2022/08/09 09:07:27;;;;;;;12.15;3.13;;;;;;;32.71;22.93;99274.41;5108708;28;20115;-73
2022/08/09 09:09:54;;;;;;;4.90;3.50;;;;;;;32.43;21.96;99277.47;5111307;28;20363;-73
2022/08/09 09:12:28;;;;;;;7.25;4.35;;;;;;;32.63;23.35;99277.66;5112848;28;20183;-74
2022/08/09 09:14:57;;;;;;;4.60;3.28;;;;;;;32.73;21.89;99268.91;5111619;28;20549;-75
2022/08/09 09:17:22;;;;;;;6.73;3.67;;;;;;;32.67;21.45;99268.00;5108550;28;20043;-75
2022/08/09 09:19:48;;;;;;;6.25;3.42;;;;;;;32.76;21.09;99265.84;5110505;28;20084;-74
2022/08/09 09:22:15;;;;;;;6.97;3.75;;;;;;;32.87;21.64;99262.34;5111649;28;20023;-74
2022/08/09 09:24:46;;;;;;;7.15;3.60;;;;;;;33.14;23.11;99262.66;5106745;28;20036;-74
2022/08/09 09:27:21;;;;;;;4.70;3.33;;;;;;;33.35;21.36;99263.56;5106740;28;20465;-74
2022/08/09 09:29:47;;;;;;;7.90;3.42;;;;;;;33.67;21.09;99258.09;5109836;28;20406;-74
2022/08/09 09:32:22;;;;;;;6.70;2.80;;;;;;;33.77;20.21;99246.34;5109786;28;20039;-75
2022/08/09 09:35:05;;;;;;;5.55;3.30;;;;;;;33.88;21.13;99246.53;5107921;28;20101;-76
2022/08/09 09:37:31;;;;;;;6.82;3.33;;;;;;;34.07;21.15;99246.31;5102707;28;20035;-76
2022/08/09 09:39:56;;;;;;;6.75;2.90;;;;;;;34.07;20.39;99246.31;5105487;28;20028;-77
2022/08/09 09:42:24;;;;;;;9.32;2.97;;;;;;;34.07;20.89;99243.44;5105596;28;20098;-78
2022/08/09 09:45:01;;;;;;;7.32;3.53;;;;;;;33.58;20.87;99246.59;5111679;28;20023;-78
2022/08/09 09:47:28;;;;;;;6.93;2.92;;;;;;;33.78;20.12;99236.34;5108590;28;20031;-77
2022/08/09 09:49:56;;;;;;;14.73;3.85;;;;;;;33.78;18.99;99224.75;5108117;28;20081;-77
2022/08/09 09:52:22;;;;;;;5.78;3.70;;;;;;;34.08;21.50;99224.72;5109465;28;20028;-78
2022/08/09 09:54:48;;;;;;;6.93;3.92;;;;;;;34.37;19.24;99225.88;5110210;28;20504;-75
2022/08/09 09:57:16;;;;;;;11.40;3.40;;;;;;;34.12;21.91;99225.28;5108910;28;20051;-79
2022/08/09 09:59:42;;;;;;;6.22;3.20;;;;;;;34.22;20.41;99223.84;5108565;28;20036;-78
2022/08/09 10:02:09;;;;;;;7.35;3.17;;;;;;;34.40;19.41;99228.59;5102894;28;20024;-77
2022/08/09 10:04:35;;;;;;;7.78;3.13;;;;;;;34.81;19.84;99226.97;5106456;28;20035;-78
2022/08/09 10:07:00;;;;;;;9.35;4.25;;;;;;;35.02;18.97;99224.84;5093001;28;20028;-85
2022/08/09 10:09:26;;;;;;;13.50;3.67;;;;;;;34.94;19.31;99229.50;5105949;28;20030;-81
2022/08/09 10:11:57;;;;;;;12.57;3.50;;;;;;;34.69;19.35;99231.88;5111664;28;20076;-82
2022/08/09 10:14:25;;;;;;;9.00;3.33;;;;;;;34.64;19.91;99233.41;5099753;28;20233;-79
2022/08/09 10:16:51;;;;;;;4.60;2.75;;;;;;;34.48;19.57;99231.84;5113319;28;20104;-79
2022/08/09 10:19:16;;;;;;;10.35;3.47;;;;;;;34.48;18.92;99228.94;5106562;28;20074;-81
2022/08/09 10:21:47;;;;;;;22.65;3.95;;;;;;;34.47;19.47;99217.84;5097285;28;20031;-78
2022/08/09 10:24:14;;;;;;;14.82;2.95;;;;;;;34.68;18.97;99213.63;5107013;28;20032;-79
2022/08/09 10:26:40;;;;;;;8.35;3.00;;;;;;;34.98;19.48;99218.44;5104158;28;20137;-76
2022/08/09 10:29:06;;;;;;;6.18;3.05;;;;;;;34.86;18.70;99226.25;5102090;28;20035;-79
2022/08/09 10:31:32;;;;;;;10.48;3.00;;;;;;;34.75;17.19;99221.09;5107959;28;20032;-76
2022/08/09 10:33:58;;;;;;;3.40;2.28;;;;;;;34.70;16.19;99227.66;5102429;28;20790;-76
2022/08/09 10:36:24;;;;;;;7.45;2.30;;;;;;;34.52;16.31;99217.16;5102131;28;20059;-79
2022/08/09 10:38:50;;;;;;;5.95;2.30;;;;;;;34.47;16.43;99194.63;5099443;28;20111;-77
2022/08/09 10:41:17;;;;;;;2.72;1.88;;;;;;;34.69;17.02;99214.44;5108752;28;20088;-75
2022/08/09 10:43:49;;;;;;;2.55;2.20;;;;;;;34.91;15.99;99218.94;5101865;28;20036;-75
2022/08/09 10:46:17;;;;;;;5.47;2.67;;;;;;;35.20;15.87;99208.41;5101322;28;20050;-77
2022/08/09 10:48:59;;;;;;;16.67;3.05;;;;;;;35.59;16.65;99210.09;5102379;28;20038;-77
2022/08/09 10:51:40;;;;;;;3.58;2.40;;;;;;;35.68;16.10;99219.41;5107488;28;20028;-77
2022/08/09 10:54:09;;;;;;;8.35;2.53;;;;;;;35.48;15.46;99202.84;5107587;28;20460;-77
2022/08/09 10:56:41;;;;;;;5.30;2.53;;;;;;;35.22;15.81;99215.31;5105054;28;20027;-78
2022/08/09 10:59:22;;;;;;;4.25;2.20;;;;;;;35.10;16.44;99214.38;5109251;28;20919;-78
2022/08/09 11:01:57;;;;;;;6.53;2.47;;;;;;;34.88;16.68;99200.41;5104284;28;20501;-78
2022/08/09 11:04:25;;;;;;;6.40;2.38;;;;;;;35.04;16.48;99210.63;5105097;28;20445;-77
2022/08/09 11:06:57;;;;;;;4.30;2.38;;;;;;;34.90;16.92;99202.81;5101519;28;20070;-77
2022/08/09 11:09:42;;;;;;;8.02;2.83;;;;;;;34.77;16.02;99200.28;5109061;28;20031;-77
2022/08/09 11:12:09;;;;;;;5.68;2.67;;;;;;;34.93;16.24;99207.59;5105606;28;20055;-77
2022/08/09 11:14:55;;;;;;;7.28;2.78;;;;;;;35.02;16.71;99201.63;5096913;28;20040;-77
2022/08/09 11:17:21;;;;;;;9.15;3.10;;;;;;;35.39;16.78;99200.13;5107643;28;20034;-77
2022/08/09 11:19:53;;;;;;;5.93;2.88;;;;;;;35.60;17.96;99197.16;5100453;28;20039;-77
2022/08/09 11:22:39;;;;;;;9.82;3.13;;;;;;;35.00;17.31;99202.13;5102357;28;20032;-77
2022/08/09 11:25:14;;;;;;;5.45;2.35;;;;;;;34.56;16.73;99201.09;5092053;28;20425;-77
2022/08/09 11:27:41;;;;;;;11.02;3.15;;;;;;;34.89;16.49;99204.13;5108638;28;20055;-77
2022/08/09 11:30:08;;;;;;;8.75;3.72;;;;;;;34.88;17.06;99203.31;5109161;28;20026;-78
2022/08/09 11:32:46;;;;;;;6.47;3.08;;;;;;;35.04;16.72;99189.50;5109194;28;20027;-77
2022/08/09 11:35:18;;;;;;;11.57;3.70;;;;;;;35.19;17.84;99198.09;5109494;28;20104;-78